Necker Belle — MKYK7 — position and weather

sailwx.info

Track history (hours):
 
Tides and Currents Weather Stations Pressure Air Temp Water Temp Dewpoint Dewpoint Depression Visibility Wind Speed Wind Dir Waves Ship Positions

Necker Belle

Last reported at 2015-Apr-14 18:27 UTC. Time now 2015-May-04 10:01 UTC.
Position N 18°24' W 064°37'.
Warning: this ship's position is 19 days out of date.

Length 32 m.

Type: Sailing vessel. MMSI: 232728000.

Date/timePositionNaut miles runAvg speedWind from/ knotsBaromVisibWave heightAir tempDewpointWater temp
2015-Apr-14 18:27N 18°24' W 064°37'  
2015-Apr-10 11:33N 18°26' W 064°42'4 3.1
2015-Apr-10 10:23N 18°26' W 064°46'0 0.0
2015-Apr-10 09:29N 18°26' W 064°46'0 0.0
2015-Apr-10 08:26N 18°26' W 064°46'0 0.0
2015-Apr-10 07:32N 18°26' W 064°46'0 0.0
2015-Apr-10 06:32N 18°26' W 064°46'0 0.0
2015-Apr-10 05:20N 18°26' W 064°46'0 0.0
2015-Apr-10 04:23N 18°26' W 064°46'0 0.0
2015-Apr-10 03:32N 18°26' W 064°46'0 0.0
2015-Apr-10 02:17N 18°26' W 064°46'0 0.0
2015-Apr-10 01:29N 18°26' W 064°46'0 0.0
2015-Apr-10 00:29N 18°26' W 064°46'0 0.0
2015-Apr-09 23:29N 18°26' W 064°46'0 0.0
2015-Apr-09 22:29N 18°26' W 064°46'0 0.0
2015-Apr-09 21:29N 18°26' W 064°46'0 0.0
2015-Apr-09 20:17N 18°26' W 064°46'0 0.0
2015-Apr-09 19:29N 18°26' W 064°46'0 0.0
2015-Apr-09 18:29N 18°26' W 064°46'3 2.4
2015-Apr-09 17:19N 18°26' W 064°43'0 0.0
2015-Apr-09 16:19N 18°26' W 064°43'0 0.0
2015-Apr-09 15:25N 18°26' W 064°43'0 0.0
2015-Apr-09 14:19N 18°26' W 064°43'0 0.0
2015-Apr-09 13:31N 18°26' W 064°43'0 0.1
2015-Apr-09 12:33N 18°26' W 064°43'15 0.4
2015-Apr-07 21:27N 18°35' W 064°30'  
Track history (hours):
 
Tides and Currents Weather Stations Pressure Air Temp Water Temp Dewpoint Dewpoint Depression Visibility Wind Speed Wind Dir Waves Ship Positions

Necker Belle

Last reported at 2015-Apr-14 18:27 UTC. Time now 2015-May-04 10:01 UTC.
Position N 18°24' W 064°37'.
Warning: this ship's position is 19 days out of date.

Length 32 m.

Type: Sailing vessel. MMSI: 232728000.

Date/timePositionNaut miles runAvg speedWind from/ knotsBaromVisibWave heightAir tempDewpointWater temp
2015-Apr-14 18:27N 18°24' W 064°37'  
2015-Apr-10 11:33N 18°26' W 064°42'4 3.1
2015-Apr-10 10:23N 18°26' W 064°46'0 0.0
2015-Apr-10 09:29N 18°26' W 064°46'0 0.0
2015-Apr-10 08:26N 18°26' W 064°46'0 0.0
2015-Apr-10 07:32N 18°26' W 064°46'0 0.0
2015-Apr-10 06:32N 18°26' W 064°46'0 0.0
2015-Apr-10 05:20N 18°26' W 064°46'0 0.0
2015-Apr-10 04:23N 18°26' W 064°46'0 0.0
2015-Apr-10 03:32N 18°26' W 064°46'0 0.0
2015-Apr-10 02:17N 18°26' W 064°46'0 0.0
2015-Apr-10 01:29N 18°26' W 064°46'0 0.0
2015-Apr-10 00:29N 18°26' W 064°46'0 0.0
2015-Apr-09 23:29N 18°26' W 064°46'0 0.0
2015-Apr-09 22:29N 18°26' W 064°46'0 0.0
2015-Apr-09 21:29N 18°26' W 064°46'0 0.0
2015-Apr-09 20:17N 18°26' W 064°46'0 0.0
2015-Apr-09 19:29N 18°26' W 064°46'0 0.0
2015-Apr-09 18:29N 18°26' W 064°46'3 2.4
2015-Apr-09 17:19N 18°26' W 064°43'0 0.0
2015-Apr-09 16:19N 18°26' W 064°43'0 0.0
2015-Apr-09 15:25N 18°26' W 064°43'0 0.0
2015-Apr-09 14:19N 18°26' W 064°43'0 0.0
2015-Apr-09 13:31N 18°26' W 064°43'0 0.1
2015-Apr-09 12:33N 18°26' W 064°43'15 0.4
2015-Apr-07 21:27N 18°35' W 064°30'  

Dump ship's entire track history